Time;durP1;ratioP1;P1;durP2;ratioP2;P2;SDS_P1;SDS_P2;PMS_P1;PMS_P2;Temp;Humidity;BMP_temperature;BMP_pressure;BME280_temperature;BME280_humidity;BME280_pressure;Samples;Min_cycle;Max_cycle;Signal;HPM_P1;HPM_P2
2023/06/15 07:01:23;;;;;;;0.10;0.10;;;32.00;92.60;33.90;101858.00;;;;6221222;22;1335021;-74
2023/06/15 07:03:48;;;;;;;0.30;0.30;;;31.10;92.80;36.70;101845.00;;;;6277274;22;20145;-74
2023/06/15 07:06:14;;;;;;;0.30;0.30;;;31.80;92.10;36.70;101852.00;;;;6277179;22;20224;-75
2023/06/15 07:08:40;;;;;;;0.20;0.20;;;32.70;90.90;35.00;101851.00;;;;6276676;22;20470;-74
2023/06/15 07:11:09;;;;;;;0.10;0.10;;;31.70;91.30;35.70;101855.00;;;;6276923;22;20137;-74
2023/06/15 07:13:38;;;;;;;0.75;0.73;;;31.50;91.70;36.00;101870.00;;;;6277008;22;20148;-74
2023/06/15 07:16:06;;;;;;;0.20;0.20;;;31.70;90.60;35.80;101871.00;;;;6251745;22;20628;-74
2023/06/15 07:18:32;;;;;;;0.10;0.10;;;31.70;90.70;35.10;101876.00;;;;6276449;22;20174;-74
2023/06/15 07:21:06;;;;;;;0.20;0.20;;;31.50;90.40;36.40;101833.00;;;;6250558;22;20168;-74
2023/06/15 07:23:31;;;;;;;0.10;0.10;;;31.90;90.50;35.50;101876.00;;;;6251313;22;20177;-74
2023/06/15 07:25:58;;;;;;;0.20;0.20;;;31.60;90.70;36.60;101873.00;;;;6276788;22;20569;-73
2023/06/15 07:28:24;;;;;;;0.65;0.65;;;32.10;90.00;34.60;101879.00;;;;6278400;22;20142;-73
2023/06/15 07:30:53;;;;;;;0.47;0.47;;;32.40;89.20;35.20;101878.00;;;;6278099;22;20206;-72
2023/06/15 07:33:19;;;;;;;0.20;0.20;;;32.20;88.10;36.00;101879.00;;;;6276413;22;20169;-72
2023/06/15 07:35:45;;;;;;;0.03;0.03;;;32.20;88.10;35.20;101886.00;;;;6278444;22;20554;-72
2023/06/15 07:38:14;;;;;;;0.40;0.40;;;31.80;88.20;34.90;101883.00;;;;6276981;22;20178;-72
2023/06/15 07:40:41;;;;;;;0.28;0.28;;;31.60;89.20;34.40;101895.00;;;;6251602;22;20487;-72
2023/06/15 07:43:10;;;;;;;3.30;2.10;;;31.30;90.20;36.60;101878.00;;;;6278480;22;20169;-73
2023/06/15 07:45:38;;;;;;;0.10;0.10;;;32.10;90.00;36.50;101879.00;;;;6251637;22;20156;-73
2023/06/15 07:48:05;;;;;;;0.10;0.10;;;32.80;88.80;34.70;101852.00;;;;6278019;22;20144;-73
2023/06/15 07:50:34;;;;;;;0.10;0.10;;;31.80;87.20;36.00;101890.00;;;;6277252;22;20145;-73
2023/06/15 07:53:05;;;;;;;1.45;0.65;;;32.20;87.20;36.10;101854.00;;;;6275739;22;20173;-72
2023/06/15 07:55:32;;;;;;;0.50;0.50;;;32.30;87.10;36.60;101882.00;;;;6251503;22;20160;-73
2023/06/15 07:57:58;;;;;;;0.10;0.10;;;32.70;87.40;37.80;101877.00;;;;6276849;22;20163;-78
2023/06/15 08:00:28;;;;;;;0.10;0.10;;;33.30;86.10;35.40;101884.00;;;;6275029;22;20172;-73
2023/06/15 08:02:54;;;;;;;0.20;0.20;;;32.90;86.10;31.20;101908.00;;;;6276267;22;20227;-72
2023/06/15 08:05:20;;;;;;;0.10;0.10;;;30.50;88.10;34.60;101884.00;;;;6275817;22;20478;-73
2023/06/15 08:07:46;;;;;;;0.10;0.10;;;30.80;86.30;34.70;101855.00;;;;6276706;22;20176;-72
2023/06/15 08:10:12;;;;;;;0.10;0.10;;;31.30;84.60;35.10;101896.00;;;;6276550;22;20558;-72
2023/06/15 08:12:39;;;;;;;0.10;0.10;;;31.90;85.00;37.10;101890.00;;;;6249853;22;20160;-77
2023/06/15 08:15:14;;;;;;;0.10;0.10;;;32.50;84.20;36.60;101878.00;;;;6278137;22;20524;-74
2023/06/15 08:17:43;;;;;;;0.20;0.20;;;32.80;84.10;37.40;101890.00;;;;6228299;22;20180;-72
2023/06/15 08:20:09;;;;;;;0.90;0.55;;;33.50;82.60;37.20;101887.00;;;;6277589;22;20169;-71
2023/06/15 08:22:38;;;;;;;0.10;0.10;;;33.70;80.30;36.20;101891.00;;;;6277584;22;20177;-71
2023/06/15 08:25:06;;;;;;;0.77;0.45;;;32.90;80.10;35.80;101884.00;;;;6276146;22;20142;-73
2023/06/15 08:27:31;;;;;;;0.35;0.35;;;32.30;80.70;35.00;101861.00;;;;6276098;22;20156;-71
2023/06/15 08:29:57;;;;;;;0.32;0.28;;;31.90;81.60;34.10;101880.00;;;;6277410;22;20161;-73
2023/06/15 08:32:26;;;;;;;0.43;0.43;;;30.90;82.30;35.00;101855.00;;;;6274635;22;20153;-72
2023/06/15 08:34:52;;;;;;;0.45;0.45;;;31.20;81.90;34.10;101897.00;;;;6276373;22;20449;-72
2023/06/15 08:37:27;;;;;;;0.28;0.28;;;30.90;81.50;34.40;101897.00;;;;6277616;22;20191;-72
2023/06/15 08:39:56;;;;;;;0.68;0.52;;;31.20;81.30;34.30;101886.00;;;;6277162;22;20149;-73
2023/06/15 08:42:30;;;;;;;0.35;0.35;;;31.10;81.80;35.10;101892.00;;;;6275455;22;20180;-71
2023/06/15 08:44:58;;;;;;;0.10;0.10;;;31.30;81.70;36.50;101891.00;;;;6275528;22;20454;-69
2023/06/15 08:47:26;;;;;;;0.73;0.73;;;31.90;81.70;35.60;101901.00;;;;6250004;22;20153;-70
2023/06/15 08:49:52;;;;;;;0.70;0.70;;;32.10;81.00;35.40;101893.00;;;;6275456;22;20147;-67
2023/06/15 08:52:25;;;;;;;0.32;0.32;;;31.90;80.90;34.10;101891.00;;;;6276097;22;20149;-72
2023/06/15 08:55:02;;;;;;;0.20;0.20;;;31.30;81.00;32.90;101908.00;;;;6276214;22;20461;-72
2023/06/15 08:57:32;;;;;;;1.67;1.58;;;30.80;81.00;29.10;101909.00;;;;6275364;22;20144;-72
2023/06/15 08:59:59;;;;;;;0.20;0.20;;;28.80;81.90;32.00;101909.00;;;;6275731;22;20492;-72
2023/06/15 09:02:29;;;;;;;0.28;0.28;;;28.70;85.10;34.00;101898.00;;;;6275356;22;20183;-72
2023/06/15 09:04:56;;;;;;;0.63;0.63;;;29.80;83.20;34.10;101891.00;;;;6250446;22;20160;-72
2023/06/15 09:07:23;;;;;;;3.35;1.05;;;30.80;82.60;31.70;101905.00;;;;6275562;22;20144;-72
2023/06/15 09:10:21;;;;;;;0.20;0.20;;;30.20;81.50;33.40;101907.00;;;;6277072;22;20141;-71
2023/06/15 09:12:56;;;;;;;1.40;0.45;;;29.80;84.20;33.30;101904.00;;;;6273048;22;20161;-72
2023/06/15 09:15:28;;;;;;;0.30;0.30;;;30.00;81.00;33.10;101906.00;;;;6274638;22;20156;-72
2023/06/15 09:17:59;;;;;;;0.10;0.10;;;30.30;81.20;34.50;101902.00;;;;6274613;22;20149;-73
2023/06/15 09:20:48;;;;;;;3.30;0.57;;;30.70;81.10;34.40;101891.00;;;;6275889;22;20145;-72
2023/06/15 09:23:17;;;;;;;0.55;0.50;;;30.90;79.70;34.80;101897.00;;;;6275770;22;20164;-73
2023/06/15 09:25:54;;;;;;;0.40;0.40;;;31.10;78.00;33.20;101897.00;;;;6249967;22;20244;-73
2023/06/15 09:28:22;;;;;;;0.10;0.10;;;30.60;77.70;34.00;101904.00;;;;6276991;22;20144;-72
2023/06/15 09:30:55;;;;;;;1.05;0.40;;;30.40;79.10;34.20;101908.00;;;;6274087;22;20153;-73
2023/06/15 09:33:22;;;;;;;0.25;0.25;;;30.80;77.70;34.00;101909.00;;;;6276809;22;20156;-72
2023/06/15 09:36:06;;;;;;;0.70;0.70;;;30.80;77.90;32.10;101900.00;;;;6275111;22;20141;-71
2023/06/15 09:38:44;;;;;;;0.47;0.47;;;30.30;78.30;32.50;101904.00;;;;6275592;22;20147;-71
2023/06/15 09:41:10;;;;;;;0.30;0.30;;;29.80;78.60;33.40;101897.00;;;;6275339;22;20156;-72
2023/06/15 09:43:39;;;;;;;0.65;0.65;;;30.40;79.70;34.30;101901.00;;;;6275513;22;20172;-73
2023/06/15 09:46:11;;;;;;;0.43;0.43;;;30.70;79.10;34.60;101891.00;;;;6276398;22;20598;-73
2023/06/15 09:48:43;;;;;;;0.17;0.17;;;30.80;78.10;34.30;101857.00;;;;6274498;22;20145;-73
2023/06/15 09:51:10;;;;;;;0.10;0.10;;;31.00;78.00;35.70;101882.00;;;;6273331;22;20137;-73
2023/06/15 09:53:39;;;;;;;0.40;0.40;;;31.40;78.50;34.60;101895.00;;;;6274434;22;20466;-73
2023/06/15 09:56:10;;;;;;;0.55;0.52;;;31.50;78.00;33.40;101891.00;;;;6247323;22;20160;-72
2023/06/15 09:58:36;;;;;;;0.57;0.57;;;30.80;78.60;32.60;101900.00;;;;6272688;22;20156;-73
2023/06/15 10:01:04;;;;;;;0.40;0.40;;;30.10;79.50;32.50;101906.00;;;;6247443;22;20248;-73
2023/06/15 10:03:34;;;;;;;0.28;0.28;;;29.80;79.40;33.00;101879.00;;;;6246981;22;20657;-72
2023/06/15 10:06:12;;;;;;;6.18;1.45;;;30.20;79.90;33.90;101905.00;;;;6273194;22;20176;-73
2023/06/15 10:08:40;;;;;;;0.20;0.20;;;30.40;80.10;35.00;101898.00;;;;6247364;22;20164;-73
2023/06/15 10:11:14;;;;;;;0.30;0.30;;;31.00;78.60;33.10;101899.00;;;;6249378;22;20480;-73
2023/06/15 10:13:51;;;;;;;0.22;0.22;;;30.90;78.50;34.70;101902.00;;;;6274794;22;20570;-73
2023/06/15 10:16:20;;;;;;;0.28;0.28;;;30.90;78.40;34.70;101905.00;;;;6275461;22;20466;-73
2023/06/15 10:18:58;;;;;;;0.57;0.57;;;31.10;77.40;34.00;101893.00;;;;6249513;22;20153;-73
2023/06/15 10:33:54;;;;;;;0.28;0.28;;;29.90;76.50;34.50;101896.00;;;;5090298;27;20583;-74
2023/06/15 10:36:29;;;;;;;1.75;1.65;;;30.40;77.00;34.60;101895.00;;;;5069243;28;20192;-73
2023/06/15 10:39:25;;;;;;;2.78;1.17;;;31.50;76.80;32.70;101900.00;;;;5069137;28;20181;-73
2023/06/15 10:41:57;;;;;;;0.20;0.20;;;31.10;76.10;33.60;101897.00;;;;5059603;28;20307;-73
2023/06/15 10:44:34;;;;;;;3.38;1.20;;;30.80;76.40;30.70;101900.00;;;;5069748;28;20190;-73
2023/06/15 10:47:13;;;;;;;0.30;0.30;;;29.60;75.70;30.60;101915.00;;;;5061580;28;20189;-73
2023/06/15 10:49:55;;;;;;;1.55;1.45;;;28.60;77.40;29.60;101906.00;;;;5068816;28;20193;-72
2023/06/15 10:52:21;;;;;;;0.10;0.10;;;27.70;77.50;31.80;101892.00;;;;5077600;28;20663;-72
2023/06/15 10:54:48;;;;;;;0.63;0.63;;;28.00;77.70;32.50;101855.00;;;;5068573;28;20185;-73
2023/06/15 10:57:26;;;;;;;0.98;0.98;;;28.80;77.60;33.80;101886.00;;;;5053338;28;20242;-74
2023/06/15 10:59:57;;;;;;;0.60;0.60;;;30.20;75.70;35.20;101883.00;;;;5067045;28;20178;-74
2023/06/15 11:02:31;;;;;;;0.10;0.10;;;31.50;75.00;37.40;101874.00;;;;5068424;28;20227;-72
2023/06/15 11:05:10;;;;;;;0.20;0.20;;;33.10;73.40;37.10;101862.00;;;;5069504;28;20184;-71
2023/06/15 11:07:47;;;;;;;0.88;0.75;;;33.30;72.90;35.30;101887.00;;;;5069652;28;20185;-71
2023/06/15 11:10:25;;;;;;;1.30;1.20;;;32.30;70.60;34.20;101869.00;;;;5069632;28;20186;-74
2023/06/15 11:13:01;;;;;;;0.10;0.10;;;31.90;70.10;34.10;101886.00;;;;5068012;28;20738;-75
2023/06/15 11:15:36;;;;;;;0.10;0.10;;;30.90;71.60;34.30;101886.00;;;;5066976;28;20215;-74
2023/06/15 11:18:12;;;;;;;0.40;0.40;;;30.80;72.80;36.20;101855.00;;;;5051818;28;20181;-71
2023/06/15 11:20:38;;;;;;;0.55;0.55;;;32.40;71.10;38.20;101860.00;;;;5056854;28;20181;-71
2023/06/15 11:23:12;;;;;;;0.30;0.30;;;33.80;70.40;38.80;101860.00;;;;5069516;28;20720;-74
2023/06/15 11:25:43;;;;;;;1.00;0.80;;;34.90;70.20;32.70;101879.00;;;;5069106;28;20235;-71
2023/06/15 11:28:11;;;;;;;1.52;1.40;;;33.40;68.70;31.30;101899.00;;;;5054247;28;20195;-73
2023/06/15 11:30:43;;;;;;;0.40;0.40;;;30.40;70.20;30.60;101848.00;;;;5069201;28;20181;-72
2023/06/15 11:33:12;;;;;;;0.50;0.50;;;28.60;74.60;31.90;101885.00;;;;5067780;28;20217;-73
2023/06/15 11:35:39;;;;;;;0.32;0.32;;;28.40;73.80;31.50;101886.00;;;;5068120;28;20191;-73
2023/06/15 11:38:10;;;;;;;1.17;1.02;;;28.50;73.60;32.00;101890.00;;;;5064490;28;20175;-73
2023/06/15 11:40:36;;;;;;;0.10;0.10;;;29.30;73.20;34.20;101870.00;;;;5061318;28;20231;-73
2023/06/15 11:43:06;;;;;;;0.20;0.20;;;30.40;72.80;35.80;101857.00;;;;5064040;28;20187;-73
2023/06/15 11:45:34;;;;;;;0.25;0.25;;;31.80;70.70;37.00;101834.00;;;;5055576;28;20183;-71
2023/06/15 11:48:00;;;;;;;0.38;0.38;;;33.50;69.90;36.20;101850.00;;;;5038327;28;20231;-71
2023/06/15 11:50:28;;;;;;;0.20;0.20;;;33.60;68.70;36.50;101852.00;;;;5054205;28;20545;-71
2023/06/15 11:52:54;;;;;;;0.52;0.52;;;32.90;69.30;36.90;101830.00;;;;5054333;28;20217;-71
2023/06/15 11:55:20;;;;;;;0.93;0.85;;;32.80;68.10;32.70;101865.00;;;;5055057;28;20637;-73
2023/06/15 11:57:49;;;;;;;0.10;0.10;;;30.80;69.80;32.70;101877.00;;;;5054477;28;20189;-73
2023/06/15 12:00:16;;;;;;;0.93;0.88;;;29.80;71.80;32.50;101876.00;;;;5050936;28;20179;-73
2023/06/15 12:02:41;;;;;;;0.40;0.40;;;29.10;72.20;30.60;101878.00;;;;5068706;28;20549;-72
2023/06/15 12:05:11;;;;;;;0.22;0.22;;;28.10;73.40;31.60;101861.00;;;;5041123;28;20273;-73
2023/06/15 12:07:38;;;;;;;0.22;0.22;;;27.80;74.10;32.60;101855.00;;;;5033009;28;20178;-73
2023/06/15 12:10:06;;;;;;;0.10;0.10;;;28.30;74.00;33.20;101855.00;;;;5054014;28;20190;-73
2023/06/15 12:12:36;;;;;;;0.20;0.20;;;29.00;73.50;32.70;101859.00;;;;5055234;28;20198;-73
2023/06/15 12:15:04;;;;;;;0.75;0.75;;;29.10;72.30;32.80;101843.00;;;;5070369;28;20186;-73
2023/06/15 12:17:37;;;;;;;0.10;0.10;;;29.40;71.70;34.60;101844.00;;;;5054079;28;20182;-73
2023/06/15 12:20:09;;;;;;;0.20;0.20;;;30.00;71.70;35.40;101828.00;;;;5054168;28;20221;-73
2023/06/15 12:22:38;;;;;;;0.20;0.20;;;30.90;71.10;35.70;101833.00;;;;5053819;28;20644;-73
2023/06/15 12:25:04;;;;;;;0.80;0.68;;;31.40;71.10;33.30;101811.00;;;;5037298;28;20530;-72
2023/06/15 12:27:50;;;;;;;0.10;0.10;;;30.20;71.40;31.80;101856.00;;;;5053725;28;20183;-72
2023/06/15 12:30:20;;;;;;;0.40;0.40;;;28.80;73.00;32.60;101853.00;;;;5046955;28;20718;-73
2023/06/15 12:32:49;;;;;;;0.85;0.85;;;28.90;73.00;32.20;101849.00;;;;5042332;28;20697;-73
2023/06/15 12:35:37;;;;;;;0.90;0.90;;;29.10;70.90;33.00;101842.00;;;;5046639;28;20685;-73
2023/06/15 12:38:07;;;;;;;1.20;1.10;;;29.20;71.10;33.00;101837.00;;;;5028748;28;20655;-73
2023/06/15 12:40:43;;;;;;;0.20;0.20;;;29.50;70.50;33.80;101813.00;;;;5045476;28;20193;-73
2023/06/15 12:43:09;;;;;;;0.20;0.20;;;29.60;70.90;33.20;101836.00;;;;5043475;28;20186;-73
2023/06/15 12:45:36;;;;;;;0.47;0.47;;;29.50;70.60;33.20;101827.00;;;;5053831;28;20174;-73
2023/06/15 12:48:04;;;;;;;0.22;0.22;;;29.90;69.50;33.10;101823.00;;;;5053691;28;20190;-73
2023/06/15 12:50:31;;;;;;;0.20;0.20;;;29.80;69.70;34.20;101821.00;;;;5053378;28;20640;-73
2023/06/15 12:52:58;;;;;;;0.17;0.17;;;30.10;70.50;34.90;101815.00;;;;5039313;28;20199;-73
2023/06/15 12:55:28;;;;;;;1.25;1.15;;;30.50;70.30;32.20;101822.00;;;;5052354;28;20182;-72
2023/06/15 12:57:55;;;;;;;0.68;0.65;;;30.10;69.80;30.40;101830.00;;;;5053165;28;20193;-72
2023/06/15 13:00:25;;;;;;;0.93;0.93;;;28.50;70.90;31.30;101817.00;;;;5053200;28;20178;-73
2023/06/15 13:02:52;;;;;;;0.63;0.63;;;28.40;71.70;32.30;101821.00;;;;5054110;28;20280;-72
2023/06/15 13:05:18;;;;;;;0.63;0.63;;;28.40;72.10;32.50;101810.00;;;;5053328;28;20189;-73
2023/06/15 13:07:46;;;;;;;0.50;0.50;;;28.70;73.00;31.40;101810.00;;;;5037117;28;20392;-72
2023/06/15 13:10:12;;;;;;;3.83;2.22;;;28.20;72.10;29.10;101839.00;;;;5049798;28;20182;-73
2023/06/15 13:12:43;;;;;;;0.10;0.10;;;27.50;72.30;30.90;101817.00;;;;5053088;28;20233;-73
2023/06/15 13:15:10;;;;;;;0.20;0.20;;;27.30;73.50;32.10;101821.00;;;;5052779;28;20223;-72
2023/06/15 13:17:37;;;;;;;2.25;0.43;;;28.00;72.20;31.60;101784.00;;;;5052788;28;20192;-73
2023/06/15 13:20:08;;;;;;;0.30;0.30;;;28.10;71.20;32.10;101810.00;;;;5052790;28;20222;-72
2023/06/15 13:22:35;;;;;;;0.13;0.13;;;28.20;71.70;31.10;101814.00;;;;5053691;28;20656;-72
2023/06/15 13:25:07;;;;;;;1.45;1.38;;;28.10;70.20;32.60;101816.00;;;;5045449;28;20190;-72
2023/06/15 13:27:37;;;;;;;0.50;0.50;;;28.40;70.30;33.30;101821.00;;;;5052524;28;20290;-72
2023/06/15 13:30:08;;;;;;;2.10;1.92;;;29.00;71.50;31.70;101814.00;;;;5052557;28;20200;-73
2023/06/15 13:32:43;;;;;;;0.20;0.20;;;28.90;70.70;32.40;101803.00;;;;5053279;28;20210;-73
2023/06/15 13:35:13;;;;;;;0.10;0.10;;;29.00;70.70;33.50;101797.00;;;;5034283;28;20201;-72
2023/06/15 13:37:40;;;;;;;1.85;1.02;;;29.30;70.80;33.70;101809.00;;;;5053345;28;20217;-72
2023/06/15 13:40:10;;;;;;;0.20;0.20;;;29.70;70.10;30.60;101819.00;;;;5052384;28;20722;-72
2023/06/15 13:42:43;;;;;;;2.67;2.47;;;28.50;70.20;30.30;101824.00;;;;5052194;28;20548;-72
2023/06/15 13:45:16;;;;;;;1.40;1.08;;;27.90;70.40;30.30;101793.00;;;;5052660;28;20189;-72
2023/06/15 13:47:44;;;;;;;0.40;0.40;;;27.60;70.30;31.10;101797.00;;;;5052223;28;20736;-72
2023/06/15 13:50:13;;;;;;;0.32;0.32;;;27.60;71.30;31.00;101806.00;;;;5051775;28;20185;-72
2023/06/15 13:52:42;;;;;;;0.40;0.40;;;27.80;71.30;30.40;101821.00;;;;5052143;28;20202;-73
2023/06/15 13:55:09;;;;;;;3.95;1.08;;;27.60;71.20;30.60;101807.00;;;;5053457;28;20637;-72
2023/06/15 13:57:36;;;;;;;0.20;0.20;;;27.60;70.20;31.40;101798.00;;;;5052169;28;20201;-73
2023/06/15 14:00:05;;;;;;;0.28;0.28;;;27.80;70.70;31.10;101804.00;;;;5052348;28;20560;-73
2023/06/15 14:02:32;;;;;;;0.57;0.57;;;28.00;71.10;31.40;101805.00;;;;5051885;28;20194;-73
2023/06/15 14:04:58;;;;;;;0.30;0.30;;;28.30;70.50;31.60;101799.00;;;;5052028;28;20185;-73
2023/06/15 14:07:25;;;;;;;1.58;1.38;;;28.40;73.20;31.20;101764.00;;;;5051769;28;20268;-73
2023/06/15 14:09:51;;;;;;;1.15;0.82;;;28.40;73.70;31.40;101806.00;;;;5052289;28;20182;-72
2023/06/15 14:12:17;;;;;;;1.05;1.05;;;28.40;73.10;32.90;101787.00;;;;5051601;28;20202;-72
2023/06/15 14:14:43;;;;;;;0.10;0.10;;;28.90;73.60;33.50;101801.00;;;;5051657;28;20194;-73
2023/06/15 14:17:10;;;;;;;0.65;0.65;;;29.30;72.90;34.40;101781.00;;;;5035274;28;20284;-73
2023/06/15 14:19:39;;;;;;;0.43;0.43;;;29.90;72.90;33.70;101782.00;;;;5051918;28;20208;-73
2023/06/15 14:22:06;;;;;;;1.13;1.10;;;29.90;71.00;33.50;101761.00;;;;5052334;28;20192;-73
2023/06/15 14:24:32;;;;;;;0.40;0.40;;;30.00;71.40;32.60;101777.00;;;;5032092;28;20290;-73
2023/06/15 14:26:58;;;;;;;1.58;1.48;;;29.60;71.80;33.40;101749.00;;;;5066812;28;20601;-73
2023/06/15 14:29:24;;;;;;;2.30;1.42;;;29.70;73.30;32.40;101781.00;;;;5052776;28;20190;-73
2023/06/15 14:31:52;;;;;;;1.48;1.27;;;29.40;73.10;31.70;101789.00;;;;5051555;28;20220;-72
2023/06/15 14:34:21;;;;;;;1.42;1.33;;;29.20;74.50;31.50;101783.00;;;;5051421;28;20182;-73
2023/06/15 14:36:49;;;;;;;0.55;0.55;;;28.70;75.00;33.00;101760.00;;;;5051394;28;20231;-73
2023/06/15 14:39:16;;;;;;;0.63;0.63;;;29.10;75.80;33.00;101784.00;;;;5051624;28;20190;-73
2023/06/15 14:41:46;;;;;;;0.20;0.20;;;29.50;75.20;32.60;101783.00;;;;5035132;28;20178;-72
2023/06/15 14:44:15;;;;;;;0.73;0.73;;;29.20;75.70;33.00;101782.00;;;;5051634;28;20178;-73
2023/06/15 14:46:42;;;;;;;4.32;3.08;;;29.30;75.40;31.60;101802.00;;;;5051421;28;20213;-73
2023/06/15 14:49:09;;;;;;;0.45;0.45;;;29.00;75.00;30.90;101797.00;;;;5051448;28;20212;-73
2023/06/15 14:51:37;;;;;;;0.50;0.50;;;28.30;75.40;32.30;101777.00;;;;5051262;28;20255;-73
2023/06/15 14:54:05;;;;;;;0.47;0.47;;;28.40;76.50;32.60;101774.00;;;;5051751;28;20580;-73
2023/06/15 14:56:31;;;;;;;0.95;0.77;;;28.80;75.30;33.00;101774.00;;;;5051343;28;20186;-73
2023/06/15 14:59:02;;;;;;;1.75;1.17;;;29.20;75.50;31.60;101786.00;;;;5051397;28;20224;-73
2023/06/15 15:01:32;;;;;;;0.20;0.20;;;28.90;75.40;32.40;101789.00;;;;5051331;28;20197;-72
2023/06/15 15:04:01;;;;;;;0.55;0.55;;;28.90;75.60;31.30;101779.00;;;;5051200;28;20182;-73
2023/06/15 15:06:28;;;;;;;0.75;0.75;;;28.40;75.20;30.80;101781.00;;;;5051143;28;20179;-73
2023/06/15 15:08:54;;;;;;;1.60;1.50;;;28.20;75.70;31.30;101768.00;;;;5034904;28;20644;-70
2023/06/15 15:11:22;;;;;;;1.98;1.15;;;28.10;75.10;31.40;101765.00;;;;5051314;28;20189;-73
2023/06/15 15:13:48;;;;;;;0.20;0.20;;;28.30;74.60;31.90;101766.00;;;;5052444;28;20186;-73
2023/06/15 15:16:14;;;;;;;0.20;0.20;;;28.20;74.90;32.10;101774.00;;;;5052590;28;20186;-73
2023/06/15 15:18:40;;;;;;;0.15;0.15;;;28.40;74.90;33.20;101764.00;;;;5052161;28;20182;-73
2023/06/15 15:21:09;;;;;;;0.95;0.95;;;28.80;74.70;32.10;101756.00;;;;5054958;28;20193;-72
2023/06/15 15:24:04;;;;;;;0.90;0.90;;;28.80;74.50;30.90;101737.00;;;;5048560;28;20260;-73
2023/06/15 15:27:00;;;;;;;1.30;0.95;;;28.30;75.20;30.80;101758.00;;;;5036039;28;20198;-72
2023/06/15 15:29:46;;;;;;;0.70;0.70;;;28.10;76.60;30.80;101767.00;;;;5045653;28;20197;-72
2023/06/15 15:32:41;;;;;;;0.10;0.10;;;28.00;76.80;31.50;101763.00;;;;5048989;28;20232;-73
2023/06/15 15:35:24;;;;;;;1.38;0.40;;;28.10;77.30;31.60;101734.00;;;;4994403;28;20210;-73
2023/06/15 15:38:22;;;;;;;0.43;0.43;;;28.20;78.40;32.10;101753.00;;;;5051254;28;20178;-72
2023/06/15 15:41:24;;;;;;;1.75;1.65;;;28.70;76.70;31.20;101754.00;;;;5055809;28;20192;-73
2023/06/15 15:44:19;;;;;;;4.57;0.90;;;28.40;76.40;32.20;101760.00;;;;5041242;28;20194;-73
2023/06/15 15:47:06;;;;;;;0.60;0.60;;;28.50;77.40;32.90;101728.00;;;;5054063;28;20197;-72
2023/06/15 15:50:02;;;;;;;0.95;0.93;;;28.90;77.80;32.40;101763.00;;;;4994023;28;20721;-73
2023/06/15 15:52:49;;;;;;;0.13;0.13;;;28.80;77.40;31.50;101771.00;;;;5037327;28;20206;-70
2023/06/15 15:55:40;;;;;;;1.10;1.10;;;28.50;78.70;31.90;101759.00;;;;5037732;28;20182;-73
2023/06/15 15:58:32;;;;;;;0.10;0.10;;;28.70;79.30;32.10;101755.00;;;;5026118;28;20221;-73
2023/06/15 16:01:30;;;;;;;0.20;0.20;;;28.40;82.90;32.60;101752.00;;;;5054285;28;20555;-73
2023/06/15 16:04:28;;;;;;;3.75;1.38;;;28.70;84.20;31.90;101671.00;;;;5055249;28;20175;-73
2023/06/15 16:07:08;;;;;;;2.47;1.88;;;28.70;85.00;31.00;101762.00;;;;5053876;28;20193;-72
2023/06/15 16:10:04;;;;;;;1.27;0.88;;;28.10;84.80;31.10;101766.00;;;;5053937;28;20194;-73
2023/06/15 16:13:02;;;;;;;0.73;0.73;;;28.10;84.90;31.00;101767.00;;;;5048332;28;20202;-73
2023/06/15 16:16:06;;;;;;;2.63;1.35;;;27.70;86.70;30.00;101762.00;;;;5052913;28;20182;-73
2023/06/15 16:19:19;;;;;;;0.70;0.70;;;27.60;87.10;31.20;101770.00;;;;5050387;28;20202;-70
2023/06/15 16:22:08;;;;;;;2.28;1.33;;;27.80;88.30;30.30;101779.00;;;;5043933;28;20186;-71
2023/06/15 16:25:04;;;;;;;0.85;0.85;;;27.80;87.80;30.60;101761.00;;;;5053917;28;20182;-71
2023/06/15 16:27:56;;;;;;;0.77;0.77;;;27.30;89.80;30.20;101787.00;;;;5053745;28;20265;-71
2023/06/15 16:30:45;;;;;;;0.35;0.35;;;27.30;88.80;29.40;101734.00;;;;5050481;28;20201;-71
2023/06/15 16:33:51;;;;;;;1.23;1.13;;;26.90;88.50;29.60;101772.00;;;;5046334;28;20218;-70
2023/06/15 16:36:45;;;;;;;2.65;0.50;;;26.70;89.20;30.20;101776.00;;;;5050300;28;20197;-71
2023/06/15 16:39:51;;;;;;;1.08;1.08;;;26.90;89.20;30.40;101761.00;;;;5012780;28;20218;-71
2023/06/15 16:42:42;;;;;;;1.55;1.45;;;26.90;89.90;30.30;101752.00;;;;5053217;28;20216;-70
2023/06/15 16:45:35;;;;;;;2.00;1.35;;;27.10;90.00;29.10;101768.00;;;;5041818;28;20210;-70
2023/06/15 16:48:21;;;;;;;1.08;1.08;;;26.90;89.80;29.70;101768.00;;;;5053325;28;20213;-70
2023/06/15 16:51:04;;;;;;;5.80;0.77;;;26.80;89.70;29.70;101759.00;;;;5049797;28;20281;-70
2023/06/15 16:53:49;;;;;;;1.92;1.02;;;26.80;89.50;29.30;101763.00;;;;5054642;28;20263;-70
2023/06/15 16:56:26;;;;;;;1.55;1.20;;;26.60;90.10;29.50;101778.00;;;;5063050;28;20231;-70
2023/06/15 16:59:12;;;;;;;0.38;0.38;;;26.40;90.50;30.30;101785.00;;;;5053137;28;20225;-70
2023/06/15 17:02:02;;;;;;;1.90;1.80;;;26.70;90.60;29.10;101772.00;;;;5053502;28;20193;-71
2023/06/15 17:04:55;;;;;;;1.30;1.20;;;26.60;89.50;29.10;101746.00;;;;5048562;28;20213;-70
2023/06/15 17:08:16;;;;;;;0.65;0.65;;;26.40;90.00;30.00;101779.00;;;;5053252;28;20640;-70
2023/06/15 17:10:59;;;;;;;1.45;0.95;;;26.50;90.30;30.10;101767.00;;;;5000358;28;20660;-71
2023/06/15 17:13:51;;;;;;;1.20;1.10;;;26.80;90.10;29.70;101784.00;;;;5052233;28;20213;-70
2023/06/15 17:16:48;;;;;;;0.55;0.55;;;26.60;90.30;29.70;101781.00;;;;5034427;28;20277;-70
2023/06/15 17:19:37;;;;;;;1.17;0.65;;;26.50;90.30;30.30;101756.00;;;;5052898;28;20652;-71
2023/06/15 17:22:29;;;;;;;0.77;0.75;;;26.60;90.80;29.50;101752.00;;;;4956510;28;20192;-71
2023/06/15 17:25:23;;;;;;;2.85;1.98;;;26.60;90.20;29.50;101748.00;;;;4957388;28;20251;-72
2023/06/15 17:28:14;;;;;;;0.82;0.70;;;26.40;90.30;29.60;101790.00;;;;5035464;28;20232;-73
2023/06/15 17:31:12;;;;;;;0.20;0.20;;;26.50;90.30;29.60;101753.00;;;;5054305;28;20183;-73
2023/06/15 17:34:05;;;;;;;0.57;0.57;;;26.40;90.70;29.30;101791.00;;;;5048115;28;20194;-70
2023/06/15 17:36:54;;;;;;;0.90;0.90;;;26.40;90.60;29.60;101772.00;;;;5041195;28;20202;-70
2023/06/15 17:39:43;;;;;;;0.10;0.10;;;26.20;91.10;29.40;101796.00;;;;5041115;28;20186;-71
2023/06/15 17:42:31;;;;;;;0.95;0.95;;;26.10;91.30;30.20;101789.00;;;;5011063;28;20712;-70
2023/06/15 17:45:08;;;;;;;0.70;0.70;;;26.40;91.20;29.30;101782.00;;;;4995691;28;20179;-71
2023/06/15 17:47:43;;;;;;;1.08;0.65;;;26.50;90.70;29.70;101790.00;;;;4995070;28;20531;-70
2023/06/15 17:50:41;;;;;;;0.30;0.30;;;26.30;90.70;29.90;101796.00;;;;4995462;28;20179;-70
2023/06/15 17:53:42;;;;;;;0.20;0.20;;;26.20;90.90;29.70;101801.00;;;;4989895;28;20305;-71
2023/06/15 17:56:33;;;;;;;1.33;0.85;;;26.20;91.00;29.00;101807.00;;;;4994720;28;20187;-70
2023/06/15 17:59:19;;;;;;;0.70;0.70;;;26.10;90.90;28.70;101808.00;;;;5004186;28;20287;-71
2023/06/15 18:01:58;;;;;;;0.20;0.20;;;25.90;91.20;29.30;101751.00;;;;4995010;28;20657;-72
2023/06/15 18:05:06;;;;;;;0.40;0.40;;;25.70;91.80;29.00;101808.00;;;;5000195;28;20194;-72
2023/06/15 18:07:56;;;;;;;1.35;1.25;;;25.80;91.30;29.30;101780.00;;;;5029139;28;20205;-70
2023/06/15 18:10:45;;;;;;;1.63;1.35;;;25.90;91.20;29.10;101786.00;;;;5052235;28;20257;-70
2023/06/15 18:13:32;;;;;;;0.85;0.82;;;25.90;90.90;28.60;101795.00;;;;4994101;28;20276;-70
2023/06/15 18:16:23;;;;;;;0.57;0.57;;;25.60;91.10;28.60;101804.00;;;;4982344;28;20187;-70
2023/06/15 18:19:16;;;;;;;1.10;0.82;;;25.50;91.10;28.50;101763.00;;;;5040525;28;20656;-71
2023/06/15 18:22:05;;;;;;;1.15;0.63;;;25.40;91.20;28.20;101795.00;;;;5007504;28;20372;-72
2023/06/15 18:25:00;;;;;;;1.00;0.60;;;25.20;91.30;28.40;101799.00;;;;5031733;28;20266;-72
2023/06/15 18:27:44;;;;;;;0.60;0.60;;;25.20;91.30;28.80;101776.00;;;;5051393;28;20602;-72
2023/06/15 18:30:20;;;;;;;0.25;0.25;;;25.30;91.20;28.40;101801.00;;;;5042163;28;20175;-72
2023/06/15 18:33:35;;;;;;;0.10;0.10;;;25.40;91.40;28.70;101800.00;;;;5051429;28;20225;-72
2023/06/15 18:36:18;;;;;;;1.65;0.75;;;25.40;91.50;28.30;101788.00;;;;5051828;28;20627;-73